sensor_id;sensor_type;location;lat;lon;timestamp;temperature;humidity
13256;DHT22;37913;48.370;10.930;2023-04-01T00:01:20;7.70;99.90
13256;DHT22;37913;48.370;10.930;2023-04-01T00:03:47;7.70;99.90
13256;DHT22;37913;48.370;10.930;2023-04-01T00:06:17;7.80;99.90
13256;DHT22;37913;48.370;10.930;2023-04-01T00:08:45;7.80;99.90
13256;DHT22;37913;48.370;10.930;2023-04-01T00:11:13;7.80;99.90
13256;DHT22;37913;48.370;10.930;2023-04-01T00:13:40;7.90;99.90
13256;DHT22;37913;48.370;10.930;2023-04-01T00:16:08;7.80;99.90
13256;DHT22;37913;48.370;10.930;2023-04-01T00:18:35;7.80;99.90
13256;DHT22;37913;48.370;10.930;2023-04-01T00:21:03;7.80;99.90
13256;DHT22;37913;48.370;10.930;2023-04-01T00:23:29;7.70;99.90
13256;DHT22;37913;48.370;10.930;2023-04-01T00:25:59;7.70;99.90
13256;DHT22;37913;48.370;10.930;2023-04-01T00:28:26;7.70;99.90
13256;DHT22;37913;48.370;10.930;2023-04-01T00:30:53;7.70;99.90
13256;DHT22;37913;48.370;10.930;2023-04-01T00:33:21;7.80;99.90
13256;DHT22;37913;48.370;10.930;2023-04-01T00:35:48;7.70;99.90
13256;DHT22;37913;48.370;10.930;2023-04-01T00:38:15;7.70;99.90
13256;DHT22;37913;48.370;10.930;2023-04-01T00:40:43;7.70;99.90
13256;DHT22;37913;48.370;10.930;2023-04-01T00:43:13;7.70;99.90
13256;DHT22;37913;48.370;10.930;2023-04-01T00:45:43;7.80;99.90
13256;DHT22;37913;48.370;10.930;2023-04-01T00:48:11;7.80;99.90
13256;DHT22;37913;48.370;10.930;2023-04-01T00:50:40;7.70;99.90
13256;DHT22;37913;48.370;10.930;2023-04-01T00:53:08;7.70;99.90
13256;DHT22;37913;48.370;10.930;2023-04-01T00:55:38;7.90;99.90
13256;DHT22;37913;48.370;10.930;2023-04-01T00:58:08;7.80;99.90
13256;DHT22;37913;48.370;10.930;2023-04-01T01:00:40;7.70;99.90
13256;DHT22;37913;48.370;10.930;2023-04-01T01:03:07;7.70;99.90
13256;DHT22;37913;48.370;10.930;2023-04-01T01:05:44;7.90;99.90
13256;DHT22;37913;48.370;10.930;2023-04-01T01:08:23;8.00;99.90
13256;DHT22;37913;48.370;10.930;2023-04-01T01:10:56;7.90;99.90
13256;DHT22;37913;48.370;10.930;2023-04-01T01:13:27;8.00;99.90
13256;DHT22;37913;48.370;10.930;2023-04-01T01:15:58;8.00;99.90
13256;DHT22;37913;48.370;10.930;2023-04-01T01:18:33;8.00;99.90
13256;DHT22;37913;48.370;10.930;2023-04-01T01:24:13;8.00;99.90
13256;DHT22;37913;48.370;10.930;2023-04-01T01:26:55;8.00;99.90
13256;DHT22;37913;48.370;10.930;2023-04-01T01:32:33;7.80;99.90
13256;DHT22;37913;48.370;10.930;2023-04-01T01:35:20;7.70;99.90
13256;DHT22;37913;48.370;10.930;2023-04-01T01:37:51;7.80;99.90
13256;DHT22;37913;48.370;10.930;2023-04-01T01:40:20;7.80;99.90
13256;DHT22;37913;48.370;10.930;2023-04-01T01:42:50;7.70;99.90
13256;DHT22;37913;48.370;10.930;2023-04-01T01:45:20;7.80;99.90
13256;DHT22;37913;48.370;10.930;2023-04-01T01:47:49;7.70;99.90
13256;DHT22;37913;48.370;10.930;2023-04-01T01:50:18;7.70;99.90
13256;DHT22;37913;48.370;10.930;2023-04-01T01:52:46;7.70;99.90
13256;DHT22;37913;48.370;10.930;2023-04-01T01:55:27;7.70;99.90
13256;DHT22;37913;48.370;10.930;2023-04-01T01:57:56;7.60;99.90
13256;DHT22;37913;48.370;10.930;2023-04-01T02:00:24;7.50;99.90
13256;DHT22;37913;48.370;10.930;2023-04-01T02:02:53;7.50;99.90
13256;DHT22;37913;48.370;10.930;2023-04-01T02:05:24;7.40;99.90
13256;DHT22;37913;48.370;10.930;2023-04-01T02:07:57;7.30;99.90
13256;DHT22;37913;48.370;10.930;2023-04-01T02:10:29;7.30;99.90
13256;DHT22;37913;48.370;10.930;2023-04-01T02:13:00;7.30;99.90
13256;DHT22;37913;48.370;10.930;2023-04-01T02:15:31;7.40;99.90
13256;DHT22;37913;48.370;10.930;2023-04-01T02:17:59;7.40;99.90
13256;DHT22;37913;48.370;10.930;2023-04-01T02:20:28;7.40;99.90
13256;DHT22;37913;48.370;10.930;2023-04-01T02:22:57;7.40;99.90
13256;DHT22;37913;48.370;10.930;2023-04-01T02:25:27;7.20;99.90
13256;DHT22;37913;48.370;10.930;2023-04-01T02:27:57;7.20;99.90
13256;DHT22;37913;48.370;10.930;2023-04-01T02:30:27;7.10;99.90
13256;DHT22;37913;48.370;10.930;2023-04-01T02:32:55;7.00;99.90
13256;DHT22;37913;48.370;10.930;2023-04-01T02:35:23;7.10;99.90
13256;DHT22;37913;48.370;10.930;2023-04-01T02:37:53;7.00;99.90
13256;DHT22;37913;48.370;10.930;2023-04-01T02:40:26;7.00;99.90
13256;DHT22;37913;48.370;10.930;2023-04-01T02:42:53;6.90;99.90
13256;DHT22;37913;48.370;10.930;2023-04-01T02:45:20;6.90;99.90
13256;DHT22;37913;48.370;10.930;2023-04-01T02:47:47;6.80;99.90
13256;DHT22;37913;48.370;10.930;2023-04-01T02:50:14;6.80;99.90
13256;DHT22;37913;48.370;10.930;2023-04-01T02:52:41;6.90;99.90
13256;DHT22;37913;48.370;10.930;2023-04-01T02:55:10;6.90;99.90
13256;DHT22;37913;48.370;10.930;2023-04-01T02:57:37;6.90;99.90
13256;DHT22;37913;48.370;10.930;2023-04-01T03:00:05;6.80;99.90
13256;DHT22;37913;48.370;10.930;2023-04-01T03:02:37;6.70;99.90
13256;DHT22;37913;48.370;10.930;2023-04-01T03:05:05;6.90;99.90
13256;DHT22;37913;48.370;10.930;2023-04-01T03:07:32;6.80;99.90
13256;DHT22;37913;48.370;10.930;2023-04-01T03:09:59;6.70;99.90
13256;DHT22;37913;48.370;10.930;2023-04-01T03:12:28;6.60;99.90
13256;DHT22;37913;48.370;10.930;2023-04-01T03:14:55;6.60;99.90
13256;DHT22;37913;48.370;10.930;2023-04-01T03:17:22;6.70;99.90
13256;DHT22;37913;48.370;10.930;2023-04-01T03:19:49;6.80;99.90
13256;DHT22;37913;48.370;10.930;2023-04-01T03:22:15;6.80;99.90
13256;DHT22;37913;48.370;10.930;2023-04-01T03:24:44;6.90;99.90
13256;DHT22;37913;48.370;10.930;2023-04-01T03:27:11;6.90;99.90
13256;DHT22;37913;48.370;10.930;2023-04-01T03:29:39;7.10;99.90
13256;DHT22;37913;48.370;10.930;2023-04-01T03:32:06;6.90;99.90
13256;DHT22;37913;48.370;10.930;2023-04-01T03:34:33;7.00;99.90
13256;DHT22;37913;48.370;10.930;2023-04-01T03:37:06;7.10;99.90
13256;DHT22;37913;48.370;10.930;2023-04-01T03:39:33;7.00;99.90
13256;DHT22;37913;48.370;10.930;2023-04-01T03:42:00;6.90;99.90
13256;DHT22;37913;48.370;10.930;2023-04-01T03:44:30;6.90;99.90
13256;DHT22;37913;48.370;10.930;2023-04-01T03:46:59;6.90;99.90
13256;DHT22;37913;48.370;10.930;2023-04-01T03:49:26;6.90;99.90
13256;DHT22;37913;48.370;10.930;2023-04-01T03:51:53;6.90;99.90
13256;DHT22;37913;48.370;10.930;2023-04-01T03:54:20;6.90;99.90
13256;DHT22;37913;48.370;10.930;2023-04-01T03:56:47;6.90;99.90
13256;DHT22;37913;48.370;10.930;2023-04-01T03:59:14;7.00;99.90
13256;DHT22;37913;48.370;10.930;2023-04-01T04:01:41;7.00;99.90
13256;DHT22;37913;48.370;10.930;2023-04-01T04:04:10;7.10;99.90
13256;DHT22;37913;48.370;10.930;2023-04-01T04:06:38;7.10;99.90
13256;DHT22;37913;48.370;10.930;2023-04-01T04:09:05;7.10;99.90
13256;DHT22;37913;48.370;10.930;2023-04-01T04:11:32;7.10;99.90
13256;DHT22;37913;48.370;10.930;2023-04-01T04:13:59;7.10;99.90
13256;DHT22;37913;48.370;10.930;2023-04-01T04:16:26;7.10;99.90
13256;DHT22;37913;48.370;10.930;2023-04-01T04:18:53;7.10;99.90
13256;DHT22;37913;48.370;10.930;2023-04-01T04:21:21;7.10;99.90
13256;DHT22;37913;48.370;10.930;2023-04-01T04:23:48;7.10;99.90
13256;DHT22;37913;48.370;10.930;2023-04-01T04:26:16;7.00;99.90
13256;DHT22;37913;48.370;10.930;2023-04-01T04:28:43;6.90;99.90
13256;DHT22;37913;48.370;10.930;2023-04-01T04:31:10;6.70;99.90
13256;DHT22;37913;48.370;10.930;2023-04-01T04:33:37;6.60;99.90
13256;DHT22;37913;48.370;10.930;2023-04-01T04:36:05;6.50;99.90
13256;DHT22;37913;48.370;10.930;2023-04-01T04:38:33;6.50;99.90
13256;DHT22;37913;48.370;10.930;2023-04-01T04:41:00;6.60;99.90
13256;DHT22;37913;48.370;10.930;2023-04-01T04:43:27;6.60;99.90
13256;DHT22;37913;48.370;10.930;2023-04-01T04:45:54;6.70;99.90
13256;DHT22;37913;48.370;10.930;2023-04-01T04:48:21;6.70;99.90
13256;DHT22;37913;48.370;10.930;2023-04-01T04:50:49;6.80;99.90
13256;DHT22;37913;48.370;10.930;2023-04-01T04:53:18;6.90;99.90
13256;DHT22;37913;48.370;10.930;2023-04-01T04:55:47;6.90;99.90
13256;DHT22;37913;48.370;10.930;2023-04-01T04:58:14;7.00;99.90
13256;DHT22;37913;48.370;10.930;2023-04-01T05:00:41;7.10;99.90
13256;DHT22;37913;48.370;10.930;2023-04-01T05:03:09;7.10;99.90
13256;DHT22;37913;48.370;10.930;2023-04-01T05:05:36;7.00;99.90
13256;DHT22;37913;48.370;10.930;2023-04-01T05:08:03;7.00;99.90
13256;DHT22;37913;48.370;10.930;2023-04-01T05:10:32;7.00;99.90
13256;DHT22;37913;48.370;10.930;2023-04-01T05:13:00;7.00;99.90
13256;DHT22;37913;48.370;10.930;2023-04-01T05:15:27;7.10;99.90
13256;DHT22;37913;48.370;10.930;2023-04-01T05:17:56;7.10;99.90
13256;DHT22;37913;48.370;10.930;2023-04-01T05:20:23;7.20;99.90
13256;DHT22;37913;48.370;10.930;2023-04-01T05:22:55;7.20;99.90
13256;DHT22;37913;48.370;10.930;2023-04-01T05:25:22;7.30;99.90
13256;DHT22;37913;48.370;10.930;2023-04-01T05:27:49;7.40;99.90
13256;DHT22;37913;48.370;10.930;2023-04-01T05:30:18;7.40;99.90
13256;DHT22;37913;48.370;10.930;2023-04-01T05:32:45;7.40;99.90
13256;DHT22;37913;48.370;10.930;2023-04-01T05:35:12;7.40;99.90
13256;DHT22;37913;48.370;10.930;2023-04-01T05:37:39;7.50;99.90
13256;DHT22;37913;48.370;10.930;2023-04-01T05:40:07;7.50;99.90
13256;DHT22;37913;48.370;10.930;2023-04-01T05:42:34;7.40;99.90
13256;DHT22;37913;48.370;10.930;2023-04-01T05:45:01;7.50;99.90
13256;DHT22;37913;48.370;10.930;2023-04-01T05:47:30;7.50;99.90
13256;DHT22;37913;48.370;10.930;2023-04-01T05:49:57;7.50;99.90
13256;DHT22;37913;48.370;10.930;2023-04-01T05:52:24;7.50;99.90
13256;DHT22;37913;48.370;10.930;2023-04-01T05:54:50;7.50;99.90
13256;DHT22;37913;48.370;10.930;2023-04-01T05:57:17;7.50;99.90
13256;DHT22;37913;48.370;10.930;2023-04-01T05:59:44;7.50;99.90
13256;DHT22;37913;48.370;10.930;2023-04-01T06:02:11;7.40;99.90
13256;DHT22;37913;48.370;10.930;2023-04-01T06:04:41;7.50;99.90
13256;DHT22;37913;48.370;10.930;2023-04-01T06:07:12;7.60;99.90
13256;DHT22;37913;48.370;10.930;2023-04-01T06:09:39;7.80;99.90
13256;DHT22;37913;48.370;10.930;2023-04-01T06:15:13;8.10;99.90
13256;DHT22;37913;48.370;10.930;2023-04-01T06:21:09;8.10;99.90
13256;DHT22;37913;48.370;10.930;2023-04-01T06:23:50;8.30;99.90
13256;DHT22;37913;48.370;10.930;2023-04-01T06:26:29;8.10;99.90
13256;DHT22;37913;48.370;10.930;2023-04-01T06:29:23;8.00;99.90
13256;DHT22;37913;48.370;10.930;2023-04-01T06:32:20;8.40;99.90
13256;DHT22;37913;48.370;10.930;2023-04-01T06:35:02;8.80;99.90
13256;DHT22;37913;48.370;10.930;2023-04-01T06:38:03;9.60;99.90
13256;DHT22;37913;48.370;10.930;2023-04-01T06:40:59;10.30;99.90
13256;DHT22;37913;48.370;10.930;2023-04-01T06:43:40;9.50;99.90
13256;DHT22;37913;48.370;10.930;2023-04-01T06:46:17;9.20;99.90
13256;DHT22;37913;48.370;10.930;2023-04-01T06:49:03;8.90;99.90
13256;DHT22;37913;48.370;10.930;2023-04-01T06:51:39;9.00;99.90
13256;DHT22;37913;48.370;10.930;2023-04-01T06:54:14;9.10;99.90
13256;DHT22;37913;48.370;10.930;2023-04-01T06:56:53;9.20;99.90
13256;DHT22;37913;48.370;10.930;2023-04-01T06:59:25;9.60;99.90
13256;DHT22;37913;48.370;10.930;2023-04-01T07:01:55;9.90;99.90
13256;DHT22;37913;48.370;10.930;2023-04-01T07:04:26;9.70;99.90
13256;DHT22;37913;48.370;10.930;2023-04-01T07:06:57;10.30;99.90
13256;DHT22;37913;48.370;10.930;2023-04-01T07:09:32;10.60;99.90
13256;DHT22;37913;48.370;10.930;2023-04-01T07:12:02;10.70;99.90
13256;DHT22;37913;48.370;10.930;2023-04-01T07:14:33;10.80;99.90
13256;DHT22;37913;48.370;10.930;2023-04-01T07:17:05;9.90;99.90
13256;DHT22;37913;48.370;10.930;2023-04-01T07:19:41;9.90;99.90
13256;DHT22;37913;48.370;10.930;2023-04-01T07:22:19;9.80;99.90
13256;DHT22;37913;48.370;10.930;2023-04-01T07:24:50;9.70;99.90
13256;DHT22;37913;48.370;10.930;2023-04-01T07:27:17;9.90;99.90
13256;DHT22;37913;48.370;10.930;2023-04-01T07:29:45;10.20;99.90
13256;DHT22;37913;48.370;10.930;2023-04-01T07:32:22;10.10;99.90
13256;DHT22;37913;48.370;10.930;2023-04-01T07:37:47;9.90;99.90
13256;DHT22;37913;48.370;10.930;2023-04-01T07:40:28;9.60;99.90
13256;DHT22;37913;48.370;10.930;2023-04-01T07:43:14;9.70;99.90
13256;DHT22;37913;48.370;10.930;2023-04-01T07:45:51;9.70;99.90
13256;DHT22;37913;48.370;10.930;2023-04-01T07:48:26;10.00;99.90
13256;DHT22;37913;48.370;10.930;2023-04-01T07:51:01;10.30;99.90
13256;DHT22;37913;48.370;10.930;2023-04-01T07:53:34;10.20;99.90
13256;DHT22;37913;48.370;10.930;2023-04-01T07:56:08;10.20;99.90
13256;DHT22;37913;48.370;10.930;2023-04-01T07:58:49;10.10;99.90
13256;DHT22;37913;48.370;10.930;2023-04-01T08:01:24;10.10;99.90
13256;DHT22;37913;48.370;10.930;2023-04-01T08:04:11;10.50;99.90
13256;DHT22;37913;48.370;10.930;2023-04-01T08:06:47;10.30;99.90
13256;DHT22;37913;48.370;10.930;2023-04-01T08:09:23;10.60;99.90
13256;DHT22;37913;48.370;10.930;2023-04-01T08:12:08;10.10;99.90
13256;DHT22;37913;48.370;10.930;2023-04-01T08:14:46;10.20;99.90
13256;DHT22;37913;48.370;10.930;2023-04-01T08:17:18;10.10;99.90
13256;DHT22;37913;48.370;10.930;2023-04-01T08:20:01;10.20;99.90
13256;DHT22;37913;48.370;10.930;2023-04-01T08:22:36;10.20;99.90
13256;DHT22;37913;48.370;10.930;2023-04-01T08:25:05;10.10;99.90
13256;DHT22;37913;48.370;10.930;2023-04-01T08:27:37;10.60;99.90
13256;DHT22;37913;48.370;10.930;2023-04-01T08:30:17;10.80;99.90
13256;DHT22;37913;48.370;10.930;2023-04-01T08:32:48;11.60;99.90
13256;DHT22;37913;48.370;10.930;2023-04-01T08:35:24;12.90;99.90
13256;DHT22;37913;48.370;10.930;2023-04-01T08:37:53;12.70;99.90
13256;DHT22;37913;48.370;10.930;2023-04-01T08:40:44;12.10;99.90
13256;DHT22;37913;48.370;10.930;2023-04-01T08:43:16;11.50;99.90
13256;DHT22;37913;48.370;10.930;2023-04-01T08:46:11;11.90;99.90
13256;DHT22;37913;48.370;10.930;2023-04-01T08:49:05;12.00;99.90
13256;DHT22;37913;48.370;10.930;2023-04-01T08:52:08;11.20;99.90
13256;DHT22;37913;48.370;10.930;2023-04-01T08:54:54;10.90;99.90
13256;DHT22;37913;48.370;10.930;2023-04-01T08:57:38;11.20;99.90
13256;DHT22;37913;48.370;10.930;2023-04-01T09:00:19;11.50;99.90
13256;DHT22;37913;48.370;10.930;2023-04-01T09:03:15;11.50;99.90
13256;DHT22;37913;48.370;10.930;2023-04-01T09:09:21;12.00;99.90
13256;DHT22;37913;48.370;10.930;2023-04-01T09:15:12;11.10;99.90
13256;DHT22;37913;48.370;10.930;2023-04-01T09:18:17;10.90;99.90
13256;DHT22;37913;48.370;10.930;2023-04-01T09:21:04;11.40;99.90
13256;DHT22;37913;48.370;10.930;2023-04-01T09:23:54;12.80;99.90
13256;DHT22;37913;48.370;10.930;2023-04-01T09:26:44;12.60;99.90
13256;DHT22;37913;48.370;10.930;2023-04-01T09:29:25;12.60;99.90
13256;DHT22;37913;48.370;10.930;2023-04-01T09:32:17;12.60;99.90
13256;DHT22;37913;48.370;10.930;2023-04-01T09:34:57;12.40;99.90
13256;DHT22;37913;48.370;10.930;2023-04-01T09:37:42;12.40;99.90
13256;DHT22;37913;48.370;10.930;2023-04-01T09:40:18;12.10;99.90
13256;DHT22;37913;48.370;10.930;2023-04-01T09:43:04;12.40;99.90
13256;DHT22;37913;48.370;10.930;2023-04-01T09:45:42;13.00;99.90
13256;DHT22;37913;48.370;10.930;2023-04-01T09:48:19;12.00;99.90
13256;DHT22;37913;48.370;10.930;2023-04-01T09:50:55;10.90;99.90
13256;DHT22;37913;48.370;10.930;2023-04-01T09:53:46;11.50;99.90
13256;DHT22;37913;48.370;10.930;2023-04-01T09:56:43;11.90;99.90
13256;DHT22;37913;48.370;10.930;2023-04-01T09:59:37;11.90;99.90
13256;DHT22;37913;48.370;10.930;2023-04-01T10:02:40;11.30;99.90
13256;DHT22;37913;48.370;10.930;2023-04-01T10:14:37;11.40;99.90
13256;DHT22;37913;48.370;10.930;2023-04-01T10:17:38;10.50;99.90
13256;DHT22;37913;48.370;10.930;2023-04-01T10:24:03;9.00;99.90
13256;DHT22;37913;48.370;10.930;2023-04-01T10:26:52;9.40;99.90
13256;DHT22;37913;48.370;10.930;2023-04-01T10:29:58;9.60;99.90
13256;DHT22;37913;48.370;10.930;2023-04-01T10:33:06;9.30;99.90
13256;DHT22;37913;48.370;10.930;2023-04-01T10:42:25;9.10;99.90
13256;DHT22;37913;48.370;10.930;2023-04-01T10:48:45;8.30;99.90
13256;DHT22;37913;48.370;10.930;2023-04-01T10:51:29;8.20;99.90
13256;DHT22;37913;48.370;10.930;2023-04-01T10:54:20;7.60;99.90
13256;DHT22;37913;48.370;10.930;2023-04-01T10:57:02;7.10;99.90
13256;DHT22;37913;48.370;10.930;2023-04-01T11:03:18;6.90;99.90
13256;DHT22;37913;48.370;10.930;2023-04-01T11:09:10;7.20;99.90
13256;DHT22;37913;48.370;10.930;2023-04-01T11:12:11;6.90;99.90
13256;DHT22;37913;48.370;10.930;2023-04-01T11:15:15;7.10;99.90
13256;DHT22;37913;48.370;10.930;2023-04-01T11:18:21;7.00;99.90
13256;DHT22;37913;48.370;10.930;2023-04-01T11:21:15;6.80;99.90
13256;DHT22;37913;48.370;10.930;2023-04-01T11:24:04;7.00;99.90
13256;DHT22;37913;48.370;10.930;2023-04-01T11:26:50;7.00;99.90
13256;DHT22;37913;48.370;10.930;2023-04-01T11:29:47;6.80;99.90
13256;DHT22;37913;48.370;10.930;2023-04-01T11:32:29;6.90;99.90
13256;DHT22;37913;48.370;10.930;2023-04-01T11:35:19;7.10;99.90
13256;DHT22;37913;48.370;10.930;2023-04-01T11:37:56;7.00;99.90
13256;DHT22;37913;48.370;10.930;2023-04-01T11:40:31;7.20;99.90
13256;DHT22;37913;48.370;10.930;2023-04-01T11:43:09;7.10;99.90
13256;DHT22;37913;48.370;10.930;2023-04-01T11:45:45;7.00;99.90
13256;DHT22;37913;48.370;10.930;2023-04-01T11:48:23;7.00;99.90
13256;DHT22;37913;48.370;10.930;2023-04-01T11:51:09;6.90;99.90
13256;DHT22;37913;48.370;10.930;2023-04-01T11:53:44;7.00;99.90
13256;DHT22;37913;48.370;10.930;2023-04-01T11:56:24;7.00;99.90
13256;DHT22;37913;48.370;10.930;2023-04-01T12:02:05;7.10;99.90
13256;DHT22;37913;48.370;10.930;2023-04-01T12:04:46;7.20;99.90
13256;DHT22;37913;48.370;10.930;2023-04-01T12:07:27;7.10;99.90
13256;DHT22;37913;48.370;10.930;2023-04-01T12:10:05;7.20;99.90
13256;DHT22;37913;48.370;10.930;2023-04-01T12:12:45;7.10;99.90
13256;DHT22;37913;48.370;10.930;2023-04-01T12:15:20;7.30;99.90
13256;DHT22;37913;48.370;10.930;2023-04-01T12:17:55;7.20;99.90
13256;DHT22;37913;48.370;10.930;2023-04-01T12:20:32;7.30;99.90
13256;DHT22;37913;48.370;10.930;2023-04-01T12:23:12;7.40;99.90
13256;DHT22;37913;48.370;10.930;2023-04-01T12:26:09;7.40;99.90
13256;DHT22;37913;48.370;10.930;2023-04-01T12:28:47;7.40;99.90
13256;DHT22;37913;48.370;10.930;2023-04-01T12:31:31;7.50;99.90
13256;DHT22;37913;48.370;10.930;2023-04-01T12:37:09;7.60;99.90
13256;DHT22;37913;48.370;10.930;2023-04-01T12:39:51;7.90;99.90
13256;DHT22;37913;48.370;10.930;2023-04-01T12:42:47;7.80;99.90
13256;DHT22;37913;48.370;10.930;2023-04-01T12:45:27;7.50;99.90
13256;DHT22;37913;48.370;10.930;2023-04-01T12:48:27;7.80;99.90
13256;DHT22;37913;48.370;10.930;2023-04-01T12:51:36;7.50;99.90
13256;DHT22;37913;48.370;10.930;2023-04-01T12:57:26;7.50;99.90
13256;DHT22;37913;48.370;10.930;2023-04-01T13:00:12;7.50;99.90
13256;DHT22;37913;48.370;10.930;2023-04-01T13:02:56;7.40;99.90
13256;DHT22;37913;48.370;10.930;2023-04-01T13:05:50;7.70;99.90
13256;DHT22;37913;48.370;10.930;2023-04-01T13:08:32;8.00;99.90
13256;DHT22;37913;48.370;10.930;2023-04-01T13:11:09;8.00;99.90
13256;DHT22;37913;48.370;10.930;2023-04-01T13:14:11;8.10;99.90
13256;DHT22;37913;48.370;10.930;2023-04-01T13:16:43;7.80;99.90
13256;DHT22;37913;48.370;10.930;2023-04-01T13:19:19;8.10;99.90
13256;DHT22;37913;48.370;10.930;2023-04-01T13:21:54;8.20;99.90
13256;DHT22;37913;48.370;10.930;2023-04-01T13:24:35;8.30;99.90
13256;DHT22;37913;48.370;10.930;2023-04-01T13:27:11;8.30;99.90
13256;DHT22;37913;48.370;10.930;2023-04-01T13:29:45;8.40;99.90
13256;DHT22;37913;48.370;10.930;2023-04-01T13:32:31;8.30;99.90
13256;DHT22;37913;48.370;10.930;2023-04-01T13:35:15;8.60;99.90
13256;DHT22;37913;48.370;10.930;2023-04-01T13:37:52;8.70;99.90
13256;DHT22;37913;48.370;10.930;2023-04-01T13:40:33;8.20;99.90
13256;DHT22;37913;48.370;10.930;2023-04-01T13:43:11;8.20;99.90
13256;DHT22;37913;48.370;10.930;2023-04-01T13:45:53;8.50;99.90
13256;DHT22;37913;48.370;10.930;2023-04-01T13:51:52;9.10;99.90
13256;DHT22;37913;48.370;10.930;2023-04-01T13:54:57;9.10;99.90
13256;DHT22;37913;48.370;10.930;2023-04-01T13:57:47;9.60;99.90
13256;DHT22;37913;48.370;10.930;2023-04-01T14:00:28;9.90;99.90
13256;DHT22;37913;48.370;10.930;2023-04-01T14:03:24;10.40;99.90
13256;DHT22;37913;48.370;10.930;2023-04-01T14:06:01;11.60;99.90
13256;DHT22;37913;48.370;10.930;2023-04-01T14:08:45;11.90;99.90
13256;DHT22;37913;48.370;10.930;2023-04-01T14:11:19;12.80;99.90
13256;DHT22;37913;48.370;10.930;2023-04-01T14:13:58;14.30;99.90
13256;DHT22;37913;48.370;10.930;2023-04-01T14:17:03;13.20;99.90
13256;DHT22;37913;48.370;10.930;2023-04-01T14:19:53;14.00;99.90
13256;DHT22;37913;48.370;10.930;2023-04-01T14:22:30;12.60;99.90
13256;DHT22;37913;48.370;10.930;2023-04-01T14:25:25;11.30;99.90
13256;DHT22;37913;48.370;10.930;2023-04-01T14:28:03;10.90;99.90
13256;DHT22;37913;48.370;10.930;2023-04-01T14:30:56;10.40;99.90
13256;DHT22;37913;48.370;10.930;2023-04-01T14:33:37;10.30;99.90
13256;DHT22;37913;48.370;10.930;2023-04-01T14:36:48;10.10;99.90
13256;DHT22;37913;48.370;10.930;2023-04-01T14:39:43;10.10;99.90
13256;DHT22;37913;48.370;10.930;2023-04-01T14:42:31;9.80;99.90
13256;DHT22;37913;48.370;10.930;2023-04-01T14:45:18;10.10;99.90
13256;DHT22;37913;48.370;10.930;2023-04-01T14:47:50;10.10;99.90
13256;DHT22;37913;48.370;10.930;2023-04-01T14:50:23;10.30;99.90
13256;DHT22;37913;48.370;10.930;2023-04-01T14:52:59;10.60;99.90
13256;DHT22;37913;48.370;10.930;2023-04-01T14:55:49;10.30;99.90
13256;DHT22;37913;48.370;10.930;2023-04-01T14:58:19;10.60;99.90
13256;DHT22;37913;48.370;10.930;2023-04-01T15:00:54;11.20;99.90
13256;DHT22;37913;48.370;10.930;2023-04-01T15:03:26;11.90;99.90
13256;DHT22;37913;48.370;10.930;2023-04-01T15:09:02;11.20;99.90
13256;DHT22;37913;48.370;10.930;2023-04-01T15:11:46;11.20;99.90
13256;DHT22;37913;48.370;10.930;2023-04-01T15:14:41;11.40;99.90
13256;DHT22;37913;48.370;10.930;2023-04-01T15:17:22;11.20;99.90
13256;DHT22;37913;48.370;10.930;2023-04-01T15:20:18;10.70;99.90
13256;DHT22;37913;48.370;10.930;2023-04-01T15:23:02;10.40;99.90
13256;DHT22;37913;48.370;10.930;2023-04-01T15:25:51;10.70;99.90
13256;DHT22;37913;48.370;10.930;2023-04-01T15:28:27;10.40;99.90
13256;DHT22;37913;48.370;10.930;2023-04-01T15:31:02;10.40;99.90
13256;DHT22;37913;48.370;10.930;2023-04-01T15:33:54;10.60;99.90
13256;DHT22;37913;48.370;10.930;2023-04-01T15:36:32;10.80;99.90
13256;DHT22;37913;48.370;10.930;2023-04-01T15:39:10;10.80;99.90
13256;DHT22;37913;48.370;10.930;2023-04-01T15:41:47;10.70;99.90
13256;DHT22;37913;48.370;10.930;2023-04-01T15:44:41;10.50;99.90
13256;DHT22;37913;48.370;10.930;2023-04-01T15:47:33;10.50;99.90
13256;DHT22;37913;48.370;10.930;2023-04-01T15:53:23;10.50;99.90
13256;DHT22;37913;48.370;10.930;2023-04-01T15:55:58;10.40;99.90
13256;DHT22;37913;48.370;10.930;2023-04-01T15:58:38;10.40;99.90
13256;DHT22;37913;48.370;10.930;2023-04-01T16:01:18;10.30;99.90
13256;DHT22;37913;48.370;10.930;2023-04-01T16:03:52;10.50;99.90
13256;DHT22;37913;48.370;10.930;2023-04-01T16:06:37;10.50;99.90
13256;DHT22;37913;48.370;10.930;2023-04-01T16:09:42;10.40;99.90
13256;DHT22;37913;48.370;10.930;2023-04-01T16:12:17;10.40;99.90
13256;DHT22;37913;48.370;10.930;2023-04-01T16:14:55;10.10;99.90
13256;DHT22;37913;48.370;10.930;2023-04-01T16:17:38;9.90;99.90
13256;DHT22;37913;48.370;10.930;2023-04-01T16:20:19;9.80;99.90
13256;DHT22;37913;48.370;10.930;2023-04-01T16:22:53;10.00;99.90
13256;DHT22;37913;48.370;10.930;2023-04-01T16:25:31;9.90;99.90
13256;DHT22;37913;48.370;10.930;2023-04-01T16:28:13;9.80;99.90
13256;DHT22;37913;48.370;10.930;2023-04-01T16:30:45;9.70;99.90
13256;DHT22;37913;48.370;10.930;2023-04-01T16:33:19;9.80;99.90
13256;DHT22;37913;48.370;10.930;2023-04-01T16:35:54;9.70;99.90
13256;DHT22;37913;48.370;10.930;2023-04-01T16:38:25;9.70;99.90
13256;DHT22;37913;48.370;10.930;2023-04-01T16:41:05;9.60;99.90
13256;DHT22;37913;48.370;10.930;2023-04-01T16:43:42;9.60;99.90
13256;DHT22;37913;48.370;10.930;2023-04-01T16:46:28;9.70;99.90
13256;DHT22;37913;48.370;10.930;2023-04-01T16:49:04;9.70;99.90
13256;DHT22;37913;48.370;10.930;2023-04-01T16:51:41;9.60;99.90
13256;DHT22;37913;48.370;10.930;2023-04-01T16:54:16;9.50;99.90
13256;DHT22;37913;48.370;10.930;2023-04-01T16:56:47;9.50;99.90
13256;DHT22;37913;48.370;10.930;2023-04-01T16:59:22;9.40;99.90
13256;DHT22;37913;48.370;10.930;2023-04-01T17:01:54;9.30;99.90
13256;DHT22;37913;48.370;10.930;2023-04-01T17:04:31;9.30;99.90
13256;DHT22;37913;48.370;10.930;2023-04-01T17:07:06;9.30;99.90
13256;DHT22;37913;48.370;10.930;2023-04-01T17:09:48;9.30;99.90
13256;DHT22;37913;48.370;10.930;2023-04-01T17:12:25;9.20;99.90
13256;DHT22;37913;48.370;10.930;2023-04-01T17:15:02;9.20;99.90
13256;DHT22;37913;48.370;10.930;2023-04-01T17:17:37;8.10;99.90
13256;DHT22;37913;48.370;10.930;2023-04-01T17:20:19;9.10;99.90
13256;DHT22;37913;48.370;10.930;2023-04-01T17:22:55;9.10;99.90
13256;DHT22;37913;48.370;10.930;2023-04-01T17:25:34;9.10;99.90
13256;DHT22;37913;48.370;10.930;2023-04-01T17:28:16;9.00;99.90
13256;DHT22;37913;48.370;10.930;2023-04-01T17:30:51;9.00;99.90
13256;DHT22;37913;48.370;10.930;2023-04-01T17:33:35;9.00;99.90
13256;DHT22;37913;48.370;10.930;2023-04-01T17:36:10;9.00;99.90
13256;DHT22;37913;48.370;10.930;2023-04-01T17:39:04;8.90;99.90